Terminal Aerodrome Forecast
Issued by NWS Kansas City/Pleasant Hill, MO

Home | Current Version | Previous Version | Text Only | Print | Product List | Glossary On
Versions: 1 2 3 4 5 6 7 8 9 10 11 12 13 14 15 16 17 18 19 20 21
000
FTUS43 KEAX 231100
TAFMCI
TAF
KMCI 231120Z 2312/2412 14010KT P6SM VCSH OVC035
     FM232200 13011KT 6SM -SHRA OVC025
     FM240400 14015KT 4SM RA BR OVC018=

USA.gov is the U.S. government's official web portal to all federal, state and local government web resources and services.